sensor_id;sensor_type;location;lat;lon;timestamp;pressure;altitude;pressure_sealevel;temperature;humidity
30110;BME280;14965;50.660;13.226;2023-03-31T00:01:29;94160.22;;;6.60;100.00
30110;BME280;14965;50.660;13.226;2023-03-31T00:03:55;94152.88;;;6.57;100.00
30110;BME280;14965;50.660;13.226;2023-03-31T00:06:21;94157.59;;;6.57;100.00
30110;BME280;14965;50.660;13.226;2023-03-31T00:08:47;94157.31;;;6.51;100.00
30110;BME280;14965;50.660;13.226;2023-03-31T00:11:13;94147.22;;;6.48;100.00
30110;BME280;14965;50.660;13.226;2023-03-31T00:13:39;94150.38;;;6.46;100.00
30110;BME280;14965;50.660;13.226;2023-03-31T00:16:08;94150.81;;;6.45;100.00
30110;BME280;14965;50.660;13.226;2023-03-31T00:18:35;94149.59;;;6.46;100.00
30110;BME280;14965;50.660;13.226;2023-03-31T00:21:07;94149.16;;;6.47;100.00
30110;BME280;14965;50.660;13.226;2023-03-31T00:23:34;94148.16;;;6.41;100.00
30110;BME280;14965;50.660;13.226;2023-03-31T00:26:00;94146.63;;;6.40;100.00
30110;BME280;14965;50.660;13.226;2023-03-31T00:28:25;94137.09;;;6.45;100.00
30110;BME280;14965;50.660;13.226;2023-03-31T00:30:51;94135.88;;;6.46;100.00
30110;BME280;14965;50.660;13.226;2023-03-31T00:33:19;94138.19;;;6.47;100.00
30110;BME280;14965;50.660;13.226;2023-03-31T00:35:45;94116.25;;;6.47;100.00
30110;BME280;14965;50.660;13.226;2023-03-31T00:38:11;94121.50;;;6.42;100.00
30110;BME280;14965;50.660;13.226;2023-03-31T00:40:44;94126.66;;;6.40;100.00
30110;BME280;14965;50.660;13.226;2023-03-31T00:43:26;94104.78;;;6.36;100.00
30110;BME280;14965;50.660;13.226;2023-03-31T00:45:53;94103.66;;;6.34;100.00
30110;BME280;14965;50.660;13.226;2023-03-31T00:48:22;94094.00;;;6.29;100.00
30110;BME280;14965;50.660;13.226;2023-03-31T00:50:52;94100.00;;;6.24;100.00
30110;BME280;14965;50.660;13.226;2023-03-31T00:53:22;94076.53;;;6.23;100.00
30110;BME280;14965;50.660;13.226;2023-03-31T00:55:53;94079.34;;;6.19;100.00
30110;BME280;14965;50.660;13.226;2023-03-31T00:58:22;94076.94;;;6.21;100.00
30110;BME280;14965;50.660;13.226;2023-03-31T01:00:50;94077.72;;;6.22;100.00
30110;BME280;14965;50.660;13.226;2023-03-31T01:03:16;94071.13;;;6.19;100.00
30110;BME280;14965;50.660;13.226;2023-03-31T01:05:46;94067.63;;;6.19;100.00
30110;BME280;14965;50.660;13.226;2023-03-31T01:08:15;94052.25;;;6.21;100.00
30110;BME280;14965;50.660;13.226;2023-03-31T01:10:49;94046.38;;;6.23;100.00
30110;BME280;14965;50.660;13.226;2023-03-31T01:13:19;94056.47;;;6.26;100.00
30110;BME280;14965;50.660;13.226;2023-03-31T01:15:46;94057.22;;;6.27;100.00
30110;BME280;14965;50.660;13.226;2023-03-31T01:18:14;94057.59;;;6.29;100.00
30110;BME280;14965;50.660;13.226;2023-03-31T01:21:09;94048.59;;;6.28;100.00
30110;BME280;14965;50.660;13.226;2023-03-31T01:24:13;94041.66;;;6.23;100.00
30110;BME280;14965;50.660;13.226;2023-03-31T01:27:07;94036.94;;;6.24;100.00
30110;BME280;14965;50.660;13.226;2023-03-31T01:30:18;94031.97;;;6.19;100.00
30110;BME280;14965;50.660;13.226;2023-03-31T01:33:32;94030.09;;;6.16;100.00
30110;BME280;14965;50.660;13.226;2023-03-31T01:36:32;94027.75;;;6.14;100.00
30110;BME280;14965;50.660;13.226;2023-03-31T01:39:44;94026.16;;;6.17;100.00
30110;BME280;14965;50.660;13.226;2023-03-31T01:42:16;94025.38;;;6.16;100.00
30110;BME280;14965;50.660;13.226;2023-03-31T01:45:00;94018.00;;;6.13;100.00
30110;BME280;14965;50.660;13.226;2023-03-31T01:47:33;94021.59;;;6.10;100.00
30110;BME280;14965;50.660;13.226;2023-03-31T01:50:04;94014.50;;;6.13;100.00
30110;BME280;14965;50.660;13.226;2023-03-31T01:52:41;94009.47;;;6.11;100.00
30110;BME280;14965;50.660;13.226;2023-03-31T01:55:19;94004.31;;;6.13;100.00
30110;BME280;14965;50.660;13.226;2023-03-31T01:57:52;94001.22;;;6.11;100.00
30110;BME280;14965;50.660;13.226;2023-03-31T02:00:26;94009.09;;;6.09;100.00
30110;BME280;14965;50.660;13.226;2023-03-31T02:03:00;94000.03;;;6.12;100.00
30110;BME280;14965;50.660;13.226;2023-03-31T02:05:35;93996.53;;;6.12;100.00
30110;BME280;14965;50.660;13.226;2023-03-31T02:08:09;93998.56;;;6.08;100.00
30110;BME280;14965;50.660;13.226;2023-03-31T02:10:40;93991.97;;;6.05;100.00
30110;BME280;14965;50.660;13.226;2023-03-31T02:13:11;93988.06;;;6.06;100.00
30110;BME280;14965;50.660;13.226;2023-03-31T02:15:43;93991.66;;;6.03;100.00
30110;BME280;14965;50.660;13.226;2023-03-31T02:18:16;93985.72;;;6.05;100.00
30110;BME280;14965;50.660;13.226;2023-03-31T02:20:48;93982.97;;;6.05;100.00
30110;BME280;14965;50.660;13.226;2023-03-31T02:23:20;93992.34;;;6.07;100.00
30110;BME280;14965;50.660;13.226;2023-03-31T02:25:52;93985.31;;;6.06;100.00
30110;BME280;14965;50.660;13.226;2023-03-31T02:28:23;93984.97;;;6.04;100.00
30110;BME280;14965;50.660;13.226;2023-03-31T02:31:05;93969.63;;;6.07;100.00
30110;BME280;14965;50.660;13.226;2023-03-31T02:33:33;93977.09;;;6.06;100.00
30110;BME280;14965;50.660;13.226;2023-03-31T02:35:59;93969.97;;;6.09;100.00
30110;BME280;14965;50.660;13.226;2023-03-31T02:38:25;93980.16;;;6.08;100.00
30110;BME280;14965;50.660;13.226;2023-03-31T02:40:53;93976.66;;;6.08;100.00
30110;BME280;14965;50.660;13.226;2023-03-31T02:43:19;93969.97;;;6.09;100.00
30110;BME280;14965;50.660;13.226;2023-03-31T02:45:47;93959.00;;;6.09;100.00
30110;BME280;14965;50.660;13.226;2023-03-31T02:48:18;93963.38;;;6.06;100.00
30110;BME280;14965;50.660;13.226;2023-03-31T02:51:33;93946.50;;;6.08;100.00
30110;BME280;14965;50.660;13.226;2023-03-31T02:54:26;93950.69;;;6.12;100.00
30110;BME280;14965;50.660;13.226;2023-03-31T02:57:18;93946.31;;;6.15;100.00
30110;BME280;14965;50.660;13.226;2023-03-31T02:59:58;93945.88;;;6.16;100.00
30110;BME280;14965;50.660;13.226;2023-03-31T03:02:40;93947.09;;;6.15;100.00
30110;BME280;14965;50.660;13.226;2023-03-31T03:05:24;93940.84;;;6.15;100.00
30110;BME280;14965;50.660;13.226;2023-03-31T03:08:06;93938.88;;;6.15;100.00
30110;BME280;14965;50.660;13.226;2023-03-31T03:10:43;93933.28;;;6.19;100.00
30110;BME280;14965;50.660;13.226;2023-03-31T03:13:20;93928.13;;;6.21;100.00
30110;BME280;14965;50.660;13.226;2023-03-31T03:15:55;93934.38;;;6.21;100.00
30110;BME280;14965;50.660;13.226;2023-03-31T03:18:23;93925.38;;;6.21;100.00
30110;BME280;14965;50.660;13.226;2023-03-31T03:20:49;93910.56;;;6.18;100.00
30110;BME280;14965;50.660;13.226;2023-03-31T03:23:16;93924.25;;;6.18;100.00
30110;BME280;14965;50.660;13.226;2023-03-31T03:25:42;93915.72;;;6.16;100.00
30110;BME280;14965;50.660;13.226;2023-03-31T03:28:09;93921.66;;;6.15;100.00
30110;BME280;14965;50.660;13.226;2023-03-31T03:30:37;93919.00;;;6.11;100.00
30110;BME280;14965;50.660;13.226;2023-03-31T03:33:03;93907.00;;;6.05;100.00
30110;BME280;14965;50.660;13.226;2023-03-31T03:35:29;93919.53;;;6.06;100.00
30110;BME280;14965;50.660;13.226;2023-03-31T03:37:55;93910.50;;;6.06;100.00
30110;BME280;14965;50.660;13.226;2023-03-31T03:40:20;93911.72;;;6.05;100.00
30110;BME280;14965;50.660;13.226;2023-03-31T03:42:46;93905.16;;;6.02;100.00
30110;BME280;14965;50.660;13.226;2023-03-31T03:45:12;93905.16;;;6.02;100.00
30110;BME280;14965;50.660;13.226;2023-03-31T03:47:40;93888.81;;;5.98;100.00
30110;BME280;14965;50.660;13.226;2023-03-31T03:50:07;93891.97;;;5.97;100.00
30110;BME280;14965;50.660;13.226;2023-03-31T03:52:34;93897.78;;;5.99;100.00
30110;BME280;14965;50.660;13.226;2023-03-31T03:55:00;93880.13;;;6.00;100.00
30110;BME280;14965;50.660;13.226;2023-03-31T03:57:26;93879.19;;;6.07;100.00
30110;BME280;14965;50.660;13.226;2023-03-31T03:59:52;93881.81;;;6.10;100.00
30110;BME280;14965;50.660;13.226;2023-03-31T04:02:18;93880.84;;;6.17;100.00
30110;BME280;14965;50.660;13.226;2023-03-31T04:04:45;93870.09;;;6.22;100.00
30110;BME280;14965;50.660;13.226;2023-03-31T04:09:46;93862.03;;;6.32;100.00
30110;BME280;14965;50.660;13.226;2023-03-31T04:12:12;93861.91;;;6.35;100.00
30110;BME280;14965;50.660;13.226;2023-03-31T04:14:38;93855.56;;;6.38;100.00
30110;BME280;14965;50.660;13.226;2023-03-31T04:17:04;93856.69;;;6.41;100.00
30110;BME280;14965;50.660;13.226;2023-03-31T04:19:30;93860.84;;;6.45;100.00
30110;BME280;14965;50.660;13.226;2023-03-31T04:21:57;93848.66;;;6.46;100.00
30110;BME280;14965;50.660;13.226;2023-03-31T04:24:24;93846.28;;;6.48;100.00
30110;BME280;14965;50.660;13.226;2023-03-31T04:26:53;93840.44;;;6.46;100.00
30110;BME280;14965;50.660;13.226;2023-03-31T04:29:28;93832.66;;;6.45;100.00
30110;BME280;14965;50.660;13.226;2023-03-31T04:31:55;93841.97;;;6.47;100.00
30110;BME280;14965;50.660;13.226;2023-03-31T04:34:27;93837.28;;;6.48;100.00
30110;BME280;14965;50.660;13.226;2023-03-31T04:36:54;93825.84;;;6.49;100.00
30110;BME280;14965;50.660;13.226;2023-03-31T04:39:24;93832.44;;;6.52;100.00
30110;BME280;14965;50.660;13.226;2023-03-31T04:41:50;93834.84;;;6.50;100.00
30110;BME280;14965;50.660;13.226;2023-03-31T04:44:17;93831.56;;;6.55;100.00
30110;BME280;14965;50.660;13.226;2023-03-31T04:46:44;93818.94;;;6.58;100.00
30110;BME280;14965;50.660;13.226;2023-03-31T04:49:15;93820.47;;;6.59;100.00
30110;BME280;14965;50.660;13.226;2023-03-31T04:51:41;93828.25;;;6.60;100.00
30110;BME280;14965;50.660;13.226;2023-03-31T04:54:08;93819.16;;;6.63;100.00
30110;BME280;14965;50.660;13.226;2023-03-31T04:56:38;93814.44;;;6.64;100.00
30110;BME280;14965;50.660;13.226;2023-03-31T04:59:06;93803.03;;;6.65;100.00
30110;BME280;14965;50.660;13.226;2023-03-31T05:01:35;93806.09;;;6.67;100.00
30110;BME280;14965;50.660;13.226;2023-03-31T05:04:03;93811.16;;;6.69;100.00
30110;BME280;14965;50.660;13.226;2023-03-31T05:06:30;93802.28;;;6.65;100.00
30110;BME280;14965;50.660;13.226;2023-03-31T05:08:56;93806.88;;;6.68;100.00
30110;BME280;14965;50.660;13.226;2023-03-31T05:11:23;93802.50;;;6.70;100.00
30110;BME280;14965;50.660;13.226;2023-03-31T05:13:59;93789.53;;;6.71;100.00
30110;BME280;14965;50.660;13.226;2023-03-31T05:16:32;93791.84;;;6.72;100.00
30110;BME280;14965;50.660;13.226;2023-03-31T05:19:07;93780.44;;;6.74;100.00
30110;BME280;14965;50.660;13.226;2023-03-31T05:21:55;93766.72;;;6.74;100.00
30110;BME280;14965;50.660;13.226;2023-03-31T05:24:47;93770.22;;;6.74;100.00
30110;BME280;14965;50.660;13.226;2023-03-31T05:35:24;93736.41;;;6.78;100.00
30110;BME280;14965;50.660;13.226;2023-03-31T05:38:06;93727.19;;;6.84;100.00
30110;BME280;14965;50.660;13.226;2023-03-31T05:41:01;93720.59;;;6.94;100.00
30110;BME280;14965;50.660;13.226;2023-03-31T05:44:38;93717.22;;;7.12;100.00
30110;BME280;14965;50.660;13.226;2023-03-31T05:48:02;93707.59;;;7.30;100.00
30110;BME280;14965;50.660;13.226;2023-03-31T05:54:23;93710.03;;;7.71;100.00
30110;BME280;14965;50.660;13.226;2023-03-31T05:56:49;93702.63;;;7.81;100.00
30110;BME280;14965;50.660;13.226;2023-03-31T05:59:15;93703.25;;;7.85;99.82
30110;BME280;14965;50.660;13.226;2023-03-31T06:01:46;93695.22;;;7.91;99.30
30110;BME280;14965;50.660;13.226;2023-03-31T06:04:12;93689.50;;;8.07;99.36
30110;BME280;14965;50.660;13.226;2023-03-31T06:06:38;93695.69;;;8.30;97.91
30110;BME280;14965;50.660;13.226;2023-03-31T06:09:05;93685.38;;;8.43;97.25
30110;BME280;14965;50.660;13.226;2023-03-31T06:11:33;93687.53;;;8.48;96.42
30110;BME280;14965;50.660;13.226;2023-03-31T06:13:59;93680.22;;;8.54;95.83
30110;BME280;14965;50.660;13.226;2023-03-31T06:16:25;93676.59;;;8.66;95.20
30110;BME280;14965;50.660;13.226;2023-03-31T06:18:51;93672.19;;;8.78;93.85
30110;BME280;14965;50.660;13.226;2023-03-31T06:21:17;93665.78;;;8.90;93.04
30110;BME280;14965;50.660;13.226;2023-03-31T06:23:44;93665.78;;;9.00;92.54
30110;BME280;14965;50.660;13.226;2023-03-31T06:26:12;93671.75;;;9.07;91.51
30110;BME280;14965;50.660;13.226;2023-03-31T06:28:40;93657.53;;;9.09;91.72
30110;BME280;14965;50.660;13.226;2023-03-31T06:31:34;93662.09;;;9.03;91.36
30110;BME280;14965;50.660;13.226;2023-03-31T06:37:58;93659.47;;;8.90;91.22
30110;BME280;14965;50.660;13.226;2023-03-31T06:40:25;93659.66;;;8.86;91.83
30110;BME280;14965;50.660;13.226;2023-03-31T06:42:51;93660.25;;;8.81;92.22
30110;BME280;14965;50.660;13.226;2023-03-31T06:45:18;93653.50;;;8.73;92.53
30110;BME280;14965;50.660;13.226;2023-03-31T06:47:44;93657.19;;;8.70;92.55
30110;BME280;14965;50.660;13.226;2023-03-31T06:50:10;93650.13;;;8.69;92.42
30110;BME280;14965;50.660;13.226;2023-03-31T06:52:36;93653.69;;;8.79;92.73
30110;BME280;14965;50.660;13.226;2023-03-31T06:55:03;93645.88;;;8.86;93.01
30110;BME280;14965;50.660;13.226;2023-03-31T06:57:29;93643.91;;;8.96;92.62
30110;BME280;14965;50.660;13.226;2023-03-31T06:59:55;93631.22;;;9.08;92.86
30110;BME280;14965;50.660;13.226;2023-03-31T07:02:23;93627.38;;;9.05;90.81
30110;BME280;14965;50.660;13.226;2023-03-31T07:04:49;93637.00;;;9.10;91.37
30110;BME280;14965;50.660;13.226;2023-03-31T07:07:15;93630.59;;;9.22;91.21
30110;BME280;14965;50.660;13.226;2023-03-31T07:09:41;93634.69;;;9.36;90.94
30110;BME280;14965;50.660;13.226;2023-03-31T07:12:07;93627.97;;;9.46;91.28
30110;BME280;14965;50.660;13.226;2023-03-31T07:14:33;93616.50;;;9.38;89.67
30110;BME280;14965;50.660;13.226;2023-03-31T07:16:59;93611.63;;;9.24;90.06
30110;BME280;14965;50.660;13.226;2023-03-31T07:19:27;93605.94;;;9.18;89.27
30110;BME280;14965;50.660;13.226;2023-03-31T07:21:53;93607.94;;;9.18;89.93
30110;BME280;14965;50.660;13.226;2023-03-31T07:24:19;93608.09;;;9.14;89.81
30110;BME280;14965;50.660;13.226;2023-03-31T07:26:45;93603.50;;;9.20;90.50
30110;BME280;14965;50.660;13.226;2023-03-31T07:29:11;93587.59;;;9.25;90.21
30110;BME280;14965;50.660;13.226;2023-03-31T07:31:37;93588.97;;;9.29;90.21
30110;BME280;14965;50.660;13.226;2023-03-31T07:34:04;93589.72;;;9.30;89.80
30110;BME280;14965;50.660;13.226;2023-03-31T07:36:31;93578.69;;;9.39;89.71
30110;BME280;14965;50.660;13.226;2023-03-31T07:38:57;93589.06;;;9.53;89.47
30110;BME280;14965;50.660;13.226;2023-03-31T07:41:23;93594.59;;;9.53;87.99
30110;BME280;14965;50.660;13.226;2023-03-31T07:43:50;93599.03;;;9.51;87.70
30110;BME280;14965;50.660;13.226;2023-03-31T07:46:19;93599.81;;;9.42;86.88
30110;BME280;14965;50.660;13.226;2023-03-31T07:48:46;93592.78;;;9.22;87.75
30110;BME280;14965;50.660;13.226;2023-03-31T07:51:14;93587.59;;;9.25;89.09
30110;BME280;14965;50.660;13.226;2023-03-31T07:53:42;93593.25;;;9.30;89.35
30110;BME280;14965;50.660;13.226;2023-03-31T07:56:08;93585.09;;;9.36;89.54
30110;BME280;14965;50.660;13.226;2023-03-31T07:58:34;93587.25;;;9.32;88.43
30110;BME280;14965;50.660;13.226;2023-03-31T08:01:00;93581.16;;;9.18;88.42
30110;BME280;14965;50.660;13.226;2023-03-31T08:03:26;93583.63;;;9.16;89.45
30110;BME280;14965;50.660;13.226;2023-03-31T08:05:52;93586.22;;;9.02;89.65
30110;BME280;14965;50.660;13.226;2023-03-31T08:08:20;93595.09;;;8.96;90.78
30110;BME280;14965;50.660;13.226;2023-03-31T08:10:48;93595.41;;;8.80;90.40
30110;BME280;14965;50.660;13.226;2023-03-31T08:13:17;93607.03;;;8.66;91.68
30110;BME280;14965;50.660;13.226;2023-03-31T08:15:46;93598.91;;;8.62;92.94
30110;BME280;14965;50.660;13.226;2023-03-31T08:18:12;93595.53;;;8.58;93.21
30110;BME280;14965;50.660;13.226;2023-03-31T08:20:38;93592.94;;;8.55;93.68
30110;BME280;14965;50.660;13.226;2023-03-31T08:23:04;93583.91;;;8.54;93.39
30110;BME280;14965;50.660;13.226;2023-03-31T08:25:30;93573.19;;;8.47;92.81
30110;BME280;14965;50.660;13.226;2023-03-31T08:27:57;93584.66;;;8.45;93.29
30110;BME280;14965;50.660;13.226;2023-03-31T08:30:23;93573.94;;;8.38;93.58
30110;BME280;14965;50.660;13.226;2023-03-31T08:32:49;93570.72;;;8.40;93.91
30110;BME280;14965;50.660;13.226;2023-03-31T08:35:15;93559.16;;;8.45;94.09
30110;BME280;14965;50.660;13.226;2023-03-31T08:37:41;93562.81;;;8.42;92.96
30110;BME280;14965;50.660;13.226;2023-03-31T08:40:16;93571.34;;;8.44;93.74
30110;BME280;14965;50.660;13.226;2023-03-31T08:42:48;93561.28;;;8.41;93.46
30110;BME280;14965;50.660;13.226;2023-03-31T08:45:22;93550.72;;;8.39;93.87
30110;BME280;14965;50.660;13.226;2023-03-31T08:47:52;93546.28;;;8.42;94.39
30110;BME280;14965;50.660;13.226;2023-03-31T08:50:25;93538.34;;;8.44;95.45
30110;BME280;14965;50.660;13.226;2023-03-31T08:53:03;93528.88;;;8.45;95.19
30110;BME280;14965;50.660;13.226;2023-03-31T08:55:36;93528.13;;;8.44;94.73
30110;BME280;14965;50.660;13.226;2023-03-31T08:58:26;93518.16;;;8.38;93.95
30110;BME280;14965;50.660;13.226;2023-03-31T09:01:04;93515.25;;;8.32;94.38
30110;BME280;14965;50.660;13.226;2023-03-31T09:03:48;93508.50;;;8.33;94.60
30110;BME280;14965;50.660;13.226;2023-03-31T09:06:23;93502.88;;;8.37;95.18
30110;BME280;14965;50.660;13.226;2023-03-31T09:09:00;93500.25;;;8.33;94.53
30110;BME280;14965;50.660;13.226;2023-03-31T09:11:34;93501.31;;;8.36;94.42
30110;BME280;14965;50.660;13.226;2023-03-31T09:14:17;93495.69;;;8.39;94.82
30110;BME280;14965;50.660;13.226;2023-03-31T09:17:04;93490.66;;;8.38;94.06
30110;BME280;14965;50.660;13.226;2023-03-31T09:19:42;93498.75;;;8.41;93.55
30110;BME280;14965;50.660;13.226;2023-03-31T09:22:16;93493.72;;;8.49;93.75
30110;BME280;14965;50.660;13.226;2023-03-31T09:24:55;93481.97;;;8.48;93.82
30110;BME280;14965;50.660;13.226;2023-03-31T09:27:26;93487.59;;;8.54;93.62
30110;BME280;14965;50.660;13.226;2023-03-31T09:29:57;93485.47;;;8.58;93.08
30110;BME280;14965;50.660;13.226;2023-03-31T09:32:31;93480.56;;;8.53;93.24
30110;BME280;14965;50.660;13.226;2023-03-31T09:35:01;93474.00;;;8.51;93.75
30110;BME280;14965;50.660;13.226;2023-03-31T09:37:37;93472.00;;;8.42;93.50
30110;BME280;14965;50.660;13.226;2023-03-31T09:40:05;93468.94;;;8.40;95.60
30110;BME280;14965;50.660;13.226;2023-03-31T09:42:32;93471.53;;;8.43;96.47
30110;BME280;14965;50.660;13.226;2023-03-31T09:45:01;93472.00;;;8.51;96.37
30110;BME280;14965;50.660;13.226;2023-03-31T09:47:41;93466.34;;;8.55;97.10
30110;BME280;14965;50.660;13.226;2023-03-31T09:50:10;93454.88;;;8.56;97.58
30110;BME280;14965;50.660;13.226;2023-03-31T09:52:40;93456.25;;;8.52;98.47
30110;BME280;14965;50.660;13.226;2023-03-31T09:55:20;93452.59;;;8.55;99.13
30110;BME280;14965;50.660;13.226;2023-03-31T09:57:48;93455.66;;;8.66;98.99
30110;BME280;14965;50.660;13.226;2023-03-31T10:00:17;93448.91;;;8.67;99.21
